createdAt,value
2023-04-22T00:02:23.487Z,3.36
2023-04-22T00:05:26.086Z,3.29
2023-04-22T00:08:28.632Z,3.27
2023-04-22T00:11:31.639Z,3.26
2023-04-22T00:14:34.021Z,3.20
2023-04-22T00:17:36.544Z,3.06
2023-04-22T00:20:39.358Z,3.05
2023-04-22T00:23:41.930Z,2.93
2023-04-22T00:26:44.232Z,2.91
2023-04-22T00:29:46.502Z,2.85
2023-04-22T00:32:49.271Z,2.99
2023-04-22T00:35:51.923Z,2.98
2023-04-22T00:38:54.396Z,3.02
2023-04-22T00:41:56.868Z,3.02
2023-04-22T00:44:59.440Z,3.10
2023-04-22T00:48:02.318Z,3.15
2023-04-22T00:51:05.493Z,3.14
2023-04-22T00:54:07.831Z,3.08
2023-04-22T00:57:10.317Z,2.91
2023-04-22T01:00:12.840Z,2.89
2023-04-22T01:03:16.326Z,2.72
2023-04-22T01:06:23.049Z,2.65
2023-04-22T01:09:25.408Z,2.63
2023-04-22T01:12:27.701Z,2.67
2023-04-22T01:15:30.170Z,2.58
2023-04-22T01:18:33.156Z,2.61
2023-04-22T01:21:36.303Z,2.56
2023-04-22T01:24:38.786Z,2.57
2023-04-22T01:27:41.586Z,2.47
2023-04-22T01:30:44.346Z,2.54
2023-04-22T01:33:48.430Z,2.44
2023-04-22T01:36:50.990Z,2.48
2023-04-22T01:39:53.339Z,2.51
2023-04-22T01:42:55.968Z,2.50
2023-04-22T01:45:58.928Z,2.47
2023-04-22T01:49:01.224Z,2.45
2023-04-22T01:52:03.568Z,2.39
2023-04-22T01:55:07.343Z,2.40
2023-04-22T01:58:09.723Z,2.47
2023-04-22T02:01:13.351Z,2.27
2023-04-22T02:04:15.887Z,2.32
2023-04-22T02:07:18.283Z,2.20
2023-04-22T02:10:21.100Z,2.23
2023-04-22T02:13:23.546Z,2.06
2023-04-22T02:16:25.904Z,1.97
2023-04-22T02:19:28.832Z,1.63
2023-04-22T02:22:31.907Z,1.99
2023-04-22T02:25:34.429Z,2.13
2023-04-22T02:28:36.780Z,2.05
2023-04-22T02:31:39.237Z,1.87
2023-04-22T02:34:41.794Z,1.87
2023-04-22T02:37:44.231Z,1.92
2023-04-22T02:40:46.662Z,1.85
2023-04-22T02:43:49.707Z,1.90
2023-04-22T02:46:52.082Z,1.93
2023-04-22T02:49:54.454Z,1.86
2023-04-22T02:52:57.070Z,1.79
2023-04-22T02:55:59.494Z,1.79
2023-04-22T02:59:01.957Z,1.88
2023-04-22T03:02:06.697Z,1.92
2023-04-22T03:05:27.974Z,1.88
2023-04-22T03:08:30.460Z,1.85
2023-04-22T03:11:32.925Z,1.92
2023-04-22T03:14:35.413Z,1.81
2023-04-22T03:17:37.739Z,1.86
2023-04-22T03:20:44.572Z,1.78
2023-04-22T03:23:46.937Z,1.73
2023-04-22T03:26:49.478Z,1.83
2023-04-22T03:29:51.765Z,1.81
2023-04-22T03:32:54.287Z,1.88
2023-04-22T03:36:06.158Z,1.87
2023-04-22T03:39:08.501Z,1.96
2023-04-22T03:42:11.853Z,1.99
2023-04-22T03:45:22.156Z,1.96
2023-04-22T03:48:40.626Z,2.04
2023-04-22T03:51:53.547Z,2.21
2023-04-22T03:54:59.161Z,2.80
2023-04-22T03:58:01.953Z,3.25
2023-04-22T04:01:05.323Z,3.98
2023-04-22T04:04:08.175Z,3.94
2023-04-22T04:07:16.885Z,3.81
2023-04-22T04:10:19.366Z,4.60
2023-04-22T04:13:23.219Z,5.17
2023-04-22T04:16:45.680Z,5.39
2023-04-22T04:19:54.363Z,4.61
2023-04-22T04:22:57.753Z,4.24
2023-04-22T04:26:03.058Z,4.39
2023-04-22T04:29:06.405Z,5.14
2023-04-22T04:32:10.138Z,5.86
2023-04-22T04:35:16.175Z,6.52
2023-04-22T04:38:23.137Z,7.05
2023-04-22T04:41:28.330Z,7.31
2023-04-22T04:44:31.997Z,7.81
2023-04-22T04:47:37.492Z,9.06
2023-04-22T04:50:50.496Z,9.82
2023-04-22T04:53:53.107Z,9.66
2023-04-22T04:56:57.391Z,9.74
2023-04-22T05:00:01.704Z,9.73
2023-04-22T05:03:04.390Z,9.68
2023-04-22T05:06:08.492Z,9.63
2023-04-22T05:09:12.906Z,9.13
2023-04-22T05:12:16.631Z,9.58
2023-04-22T05:15:19.288Z,10.08
2023-04-22T05:18:22.836Z,11.28
2023-04-22T05:21:25.360Z,11.93
2023-04-22T05:24:27.852Z,12.07
2023-04-22T05:27:31.827Z,12.34
2023-04-22T05:30:35.087Z,12.61
2023-04-22T05:33:37.381Z,12.80
2023-04-22T05:36:41.076Z,12.24
2023-04-22T05:39:45.034Z,12.80
2023-04-22T05:42:47.538Z,13.38
2023-04-22T05:45:50.180Z,13.47
2023-04-22T05:48:55.451Z,13.61
2023-04-22T05:52:16.779Z,13.52
2023-04-22T05:55:30.678Z,13.59
2023-04-22T05:58:33.242Z,13.51
2023-04-22T06:01:42.172Z,13.33
2023-04-22T06:04:46.038Z,13.32
2023-04-22T06:07:49.121Z,13.42
2023-04-22T06:10:51.512Z,13.33
2023-04-22T06:13:54.188Z,13.15
2023-04-22T06:16:56.884Z,13.44
2023-04-22T06:19:59.299Z,13.52
2023-04-22T06:23:02.085Z,13.27
2023-04-22T06:26:05.084Z,13.79
2023-04-22T06:29:08.422Z,13.74
2023-04-22T06:32:13.486Z,13.72
2023-04-22T06:35:17.886Z,14.02
2023-04-22T06:38:20.650Z,14.21
2023-04-22T06:41:44.478Z,13.65
2023-04-22T06:45:05.593Z,13.66
2023-04-22T06:48:14.609Z,13.46
2023-04-22T06:51:39.718Z,13.38
2023-04-22T06:54:42.841Z,13.41
2023-04-22T06:57:45.390Z,12.99
2023-04-22T07:00:48.503Z,12.92
2023-04-22T07:03:51.180Z,12.52
2023-04-22T07:06:55.508Z,12.36
2023-04-22T07:09:58.158Z,12.77
2023-04-22T07:13:05.459Z,12.54
2023-04-22T07:16:07.928Z,12.49
2023-04-22T07:19:10.445Z,12.10
2023-04-22T07:22:12.865Z,12.17
2023-04-22T07:25:15.769Z,12.50
2023-04-22T07:28:18.462Z,12.63
2023-04-22T07:31:20.931Z,12.82
2023-04-22T07:34:23.298Z,12.63
2023-04-22T07:37:25.968Z,12.89
2023-04-22T07:40:28.386Z,13.03
2023-04-22T07:43:30.969Z,12.92
2023-04-22T07:46:33.337Z,12.71
2023-04-22T07:49:35.703Z,13.01
2023-04-22T07:52:38.126Z,13.34
2023-04-22T07:55:40.437Z,13.36
2023-04-22T07:58:43.128Z,13.30
2023-04-22T08:01:46.720Z,13.29
2023-04-22T08:04:49.195Z,13.31
2023-04-22T08:07:51.638Z,13.41
2023-04-22T08:10:54.550Z,13.31
2023-04-22T08:13:56.922Z,13.56
2023-04-22T08:16:59.206Z,13.59
2023-04-22T08:20:01.617Z,13.48
2023-04-22T08:23:03.982Z,13.84
2023-04-22T08:26:08.347Z,13.72
2023-04-22T08:29:10.520Z,13.82
2023-04-22T08:32:12.814Z,13.84
2023-04-22T08:35:15.181Z,14.14
2023-04-22T08:38:17.454Z,14.05
2023-04-22T08:41:19.910Z,14.13
2023-04-22T08:44:23.310Z,14.05
2023-04-22T08:47:26.684Z,14.28
2023-04-22T08:50:30.211Z,14.24
2023-04-22T08:53:32.684Z,14.40
2023-04-22T08:56:35.810Z,14.20
2023-04-22T08:59:39.289Z,14.46
2023-04-22T09:02:45.227Z,14.89
2023-04-22T09:05:48.228Z,14.63
2023-04-22T09:08:50.848Z,14.62
2023-04-22T09:11:53.163Z,14.62
2023-04-22T09:14:55.924Z,14.56
2023-04-22T09:17:58.776Z,14.79
2023-04-22T09:21:01.241Z,14.87
2023-04-22T09:24:03.966Z,14.85
2023-04-22T09:27:06.339Z,14.98
2023-04-22T09:30:10.140Z,14.83
2023-04-22T09:33:13.975Z,14.95
2023-04-22T09:36:16.290Z,15.25
2023-04-22T09:39:18.519Z,15.27
2023-04-22T09:42:22.085Z,15.22
2023-04-22T09:45:38.931Z,15.36
2023-04-22T09:48:45.478Z,14.96
2023-04-22T09:51:49.787Z,15.48
2023-04-22T09:54:52.283Z,15.67
2023-04-22T09:57:55.899Z,15.59
2023-04-22T10:00:59.651Z,15.59
2023-04-22T10:04:02.064Z,15.33
2023-04-22T10:07:04.626Z,15.64
2023-04-22T10:10:10.155Z,15.41
2023-04-22T10:13:12.656Z,15.75
2023-04-22T10:16:15.486Z,15.85
2023-04-22T10:19:22.295Z,15.91
2023-04-22T10:22:24.730Z,15.92
2023-04-22T10:25:27.878Z,16.01
2023-04-22T10:28:30.887Z,15.93
2023-04-22T10:31:33.275Z,16.10
2023-04-22T10:34:39.062Z,15.95
2023-04-22T10:37:42.808Z,16.14
2023-04-22T10:41:00.940Z,16.33
2023-04-22T10:44:07.584Z,16.49
2023-04-22T10:47:10.133Z,16.49
2023-04-22T10:50:18.174Z,16.47
2023-04-22T10:53:37.842Z,16.46
2023-04-22T10:57:02.298Z,16.12
2023-04-22T11:00:17.879Z,16.29
2023-04-22T11:03:26.938Z,16.74
2023-04-22T11:06:30.478Z,16.80
2023-04-22T11:09:32.844Z,16.78
2023-04-22T11:12:43.906Z,16.92
2023-04-22T11:15:51.297Z,16.68
2023-04-22T11:18:53.748Z,16.57
2023-04-22T11:21:56.318Z,17.24
2023-04-22T11:25:01.121Z,17.37
2023-04-22T11:28:03.971Z,17.35
2023-04-22T11:31:10.017Z,17.10
2023-04-22T11:34:13.107Z,17.23
2023-04-22T11:37:19.953Z,17.56
2023-04-22T11:40:46.161Z,17.39
2023-04-22T11:43:49.684Z,17.37
2023-04-22T11:46:51.966Z,17.17
2023-04-22T11:50:09.476Z,17.11
2023-04-22T11:53:16.170Z,17.12
2023-04-22T11:56:18.588Z,17.36
2023-04-22T11:59:20.893Z,17.36
2023-04-22T12:02:24.813Z,17.37
2023-04-22T12:05:57.655Z,17.76
2023-04-22T12:09:01.206Z,18.02
2023-04-22T12:12:06.516Z,17.82
2023-04-22T12:15:13.750Z,17.93
2023-04-22T12:18:16.249Z,18.31
2023-04-22T12:21:23.903Z,18.34
2023-04-22T12:24:29.994Z,18.05
2023-04-22T12:27:32.420Z,18.15
2023-04-22T12:30:34.816Z,18.17
2023-04-22T12:33:38.602Z,18.24
2023-04-22T12:36:41.323Z,18.09
2023-04-22T12:39:43.797Z,17.93
2023-04-22T12:42:46.110Z,17.85
2023-04-22T12:45:48.482Z,18.07
2023-04-22T12:48:51.712Z,18.35
2023-04-22T12:51:54.246Z,18.30
2023-04-22T12:54:56.604Z,18.04
2023-04-22T12:57:59.100Z,18.22
2023-04-22T13:01:01.453Z,18.12
2023-04-22T13:04:03.864Z,18.19
2023-04-22T13:07:06.330Z,18.69
2023-04-22T13:10:10.765Z,18.44
2023-04-22T13:13:17.542Z,19.08
2023-04-22T13:16:21.489Z,18.70
2023-04-22T13:19:25.896Z,18.50
2023-04-22T13:22:28.288Z,18.86
2023-04-22T13:25:30.788Z,18.85
2023-04-22T13:28:33.181Z,18.66
2023-04-22T13:31:35.521Z,18.60
2023-04-22T13:34:39.659Z,18.88
2023-04-22T13:37:42.007Z,18.63
2023-04-22T13:40:44.531Z,18.41
2023-04-22T13:43:46.930Z,18.86
2023-04-22T13:46:49.523Z,18.83
2023-04-22T13:49:51.832Z,18.74
2023-04-22T13:52:54.458Z,18.78
2023-04-22T13:55:56.867Z,18.65
2023-04-22T13:58:59.638Z,18.76
2023-04-22T14:02:02.006Z,18.81
2023-04-22T14:05:05.463Z,18.56
2023-04-22T14:08:07.765Z,18.75
2023-04-22T14:11:10.474Z,18.40
2023-04-22T14:14:12.801Z,18.61
2023-04-22T14:17:15.118Z,18.46
2023-04-22T14:20:17.643Z,18.58
2023-04-22T14:23:20.126Z,18.58
2023-04-22T14:26:22.449Z,18.66
2023-04-22T14:29:25.149Z,19.03
2023-04-22T14:32:27.995Z,18.92
2023-04-22T14:35:30.400Z,18.86
2023-04-22T14:38:32.848Z,19.31
2023-04-22T14:41:35.562Z,19.33
2023-04-22T14:44:38.010Z,19.16
2023-04-22T14:47:40.387Z,19.04
2023-04-22T14:50:43.787Z,19.23
2023-04-22T14:53:46.431Z,19.29
2023-04-22T14:56:48.758Z,19.23
2023-04-22T14:59:51.158Z,19.14
2023-04-22T15:02:55.140Z,18.30
2023-04-22T15:05:58.137Z,18.56
2023-04-22T15:09:00.641Z,18.82
2023-04-22T15:12:05.983Z,18.92
2023-04-22T15:15:08.832Z,18.95
2023-04-22T15:18:11.744Z,18.77
2023-04-22T15:21:14.052Z,18.54
2023-04-22T15:24:16.444Z,18.60
2023-04-22T15:27:19.469Z,18.46
2023-04-22T15:30:21.944Z,18.63
2023-04-22T15:33:24.321Z,18.69
2023-04-22T15:36:26.780Z,18.55
2023-04-22T15:39:29.114Z,18.58
2023-04-22T15:42:31.396Z,18.41
2023-04-22T15:45:34.894Z,18.39
2023-04-22T15:48:37.163Z,18.31
2023-04-22T15:51:39.474Z,18.25
2023-04-22T15:54:41.823Z,18.18
2023-04-22T15:57:44.122Z,17.98
2023-04-22T16:00:46.744Z,17.84
2023-04-22T16:03:49.497Z,17.89
2023-04-22T16:06:51.975Z,17.91
2023-04-22T16:09:54.434Z,17.99
2023-04-22T16:12:56.759Z,18.05
2023-04-22T16:15:59.203Z,17.90
2023-04-22T16:19:01.643Z,17.75
2023-04-22T16:22:04.014Z,17.65
2023-04-22T16:25:07.054Z,17.57
2023-04-22T16:28:10.533Z,17.45
2023-04-22T16:31:13.848Z,17.47
2023-04-22T16:34:16.295Z,17.43
2023-04-22T16:37:18.992Z,17.31
2023-04-22T16:40:21.363Z,17.07
2023-04-22T16:43:23.863Z,17.12
2023-04-22T16:46:26.296Z,17.02
2023-04-22T16:49:28.687Z,16.91
2023-04-22T16:52:31.298Z,16.77
2023-04-22T16:55:36.316Z,16.61
2023-04-22T16:58:39.232Z,16.45
2023-04-22T17:01:42.263Z,16.33
2023-04-22T17:04:44.796Z,16.25
2023-04-22T17:07:47.121Z,16.11
2023-04-22T17:10:49.473Z,16.12
2023-04-22T17:13:52.100Z,15.95
2023-04-22T17:16:54.725Z,15.81
2023-04-22T17:19:57.162Z,15.72
2023-04-22T17:22:59.593Z,15.60
2023-04-22T17:26:02.170Z,15.41
2023-04-22T17:29:04.625Z,15.25
2023-04-22T17:32:07.167Z,15.16
2023-04-22T17:35:10.480Z,14.99
2023-04-22T17:38:14.192Z,14.77
2023-04-22T17:41:18.627Z,14.64
2023-04-22T17:44:21.937Z,14.47
2023-04-22T17:47:24.772Z,14.30
2023-04-22T17:50:27.146Z,14.28
2023-04-22T17:53:29.583Z,14.31
2023-04-22T17:56:32.009Z,14.22
2023-04-22T17:59:34.597Z,14.20
2023-04-22T18:02:37.077Z,14.04
2023-04-22T18:05:43.238Z,13.82
2023-04-22T18:08:45.812Z,13.60
2023-04-22T18:11:48.248Z,13.35
2023-04-22T18:14:50.783Z,13.14
2023-04-22T18:17:53.357Z,12.97
2023-04-22T18:20:55.756Z,12.76
2023-04-22T18:23:58.662Z,12.62
2023-04-22T18:27:01.364Z,12.47
2023-04-22T18:30:04.075Z,12.33
2023-04-22T18:33:06.661Z,12.11
2023-04-22T18:36:09.344Z,12.06
2023-04-22T18:39:11.872Z,11.88
2023-04-22T18:42:14.235Z,11.70
2023-04-22T18:45:16.957Z,11.72
2023-04-22T18:48:20.417Z,11.64
2023-04-22T18:51:22.890Z,11.48
2023-04-22T18:54:25.564Z,11.35
2023-04-22T18:57:27.965Z,11.25
2023-04-22T19:00:30.539Z,11.02
2023-04-22T19:03:33.067Z,10.91
2023-04-22T19:06:35.656Z,10.90
2023-04-22T19:09:38.205Z,10.65
2023-04-22T19:12:41.764Z,10.90
2023-04-22T19:15:44.198Z,10.96
2023-04-22T19:18:46.560Z,11.23
2023-04-22T19:21:48.833Z,11.23
2023-04-22T19:24:51.461Z,11.08
2023-04-22T19:27:53.930Z,11.02
2023-04-22T19:30:56.228Z,10.84
2023-04-22T19:33:58.744Z,10.70
2023-04-22T19:37:03.005Z,10.52
2023-04-22T19:40:05.708Z,10.58
2023-04-22T19:43:08.135Z,10.56
2023-04-22T19:46:10.559Z,10.50
2023-04-22T19:49:13.442Z,10.38
2023-04-22T19:52:16.320Z,10.28
2023-04-22T19:55:19.782Z,10.30
2023-04-22T19:58:22.436Z,10.07
2023-04-22T20:01:25.163Z,10.00
2023-04-22T20:04:28.122Z,9.95
2023-04-22T20:07:31.428Z,9.98
2023-04-22T20:10:34.004Z,9.97
2023-04-22T20:13:36.619Z,9.92
2023-04-22T20:16:39.479Z,9.89
2023-04-22T20:19:42.094Z,9.90
2023-04-22T20:22:46.454Z,9.95
2023-04-22T20:25:49.659Z,10.00
2023-04-22T20:28:53.272Z,10.09
2023-04-22T20:31:56.185Z,10.03
2023-04-22T20:34:58.928Z,10.02
2023-04-22T20:38:02.709Z,10.01
2023-04-22T20:41:06.254Z,9.94
2023-04-22T20:44:08.649Z,9.85
2023-04-22T20:47:11.432Z,9.82
2023-04-22T20:50:14.064Z,9.65
2023-04-22T20:53:16.625Z,9.52
2023-04-22T20:56:21.518Z,9.39
2023-04-22T20:59:24.019Z,9.35
2023-04-22T21:02:26.982Z,9.34
2023-04-22T21:05:29.504Z,9.30
2023-04-22T21:08:33.509Z,9.27
2023-04-22T21:11:36.307Z,9.24
2023-04-22T21:14:43.167Z,9.33
2023-04-22T21:17:52.050Z,9.33
2023-04-22T21:20:57.106Z,9.26
2023-04-22T21:24:01.453Z,9.12
2023-04-22T21:27:03.834Z,9.10
2023-04-22T21:30:06.985Z,9.06
2023-04-22T21:33:09.363Z,9.04
2023-04-22T21:36:11.730Z,8.96
2023-04-22T21:39:14.417Z,8.84
2023-04-22T21:42:16.707Z,8.83
2023-04-22T21:45:19.198Z,9.00
2023-04-22T21:48:21.486Z,8.86
2023-04-22T21:51:23.880Z,8.77
2023-04-22T21:54:26.232Z,8.79
2023-04-22T21:57:28.583Z,8.64
2023-04-22T22:00:31.838Z,8.63
2023-04-22T22:03:36.320Z,8.57
2023-04-22T22:06:38.882Z,8.60
2023-04-22T22:09:43.897Z,8.73
2023-04-22T22:12:47.091Z,8.94
2023-04-22T22:15:49.696Z,9.02
2023-04-22T22:18:52.365Z,9.15
2023-04-22T22:21:54.689Z,9.23
2023-04-22T22:24:57.060Z,9.09
2023-04-22T22:27:59.698Z,9.05
2023-04-22T22:31:02.356Z,9.09
2023-04-22T22:34:04.661Z,9.10
2023-04-22T22:37:07.110Z,8.92
2023-04-22T22:40:10.236Z,8.97
2023-04-22T22:43:13.617Z,8.75
2023-04-22T22:46:16.102Z,8.54
2023-04-22T22:49:18.469Z,8.50
2023-04-22T22:52:20.944Z,8.67
2023-04-22T22:55:23.344Z,8.55
2023-04-22T22:58:26.015Z,8.38
2023-04-22T23:01:28.486Z,8.49
2023-04-22T23:04:31.022Z,8.42
2023-04-22T23:07:34.054Z,8.54
2023-04-22T23:10:36.378Z,8.49
2023-04-22T23:13:38.795Z,8.35
2023-04-22T23:16:41.170Z,8.29
2023-04-22T23:19:44.807Z,8.32
2023-04-22T23:22:48.635Z,8.22
2023-04-22T23:25:51.559Z,8.35
2023-04-22T23:28:54.070Z,8.43
2023-04-22T23:31:56.535Z,8.43
2023-04-22T23:35:01.990Z,8.41
2023-04-22T23:38:04.831Z,8.34
2023-04-22T23:41:07.156Z,8.29
2023-04-22T23:44:09.490Z,8.46
2023-04-22T23:47:12.984Z,8.28
2023-04-22T23:50:16.368Z,8.27
2023-04-22T23:53:18.771Z,8.11
2023-04-22T23:56:22.945Z,8.14
2023-04-22T23:59:25.666Z,8.19
